SARM/MCS METAR and TAF weather

Enter ICAO airport designator
Station Type Date Time Source
SARM METAR 2019/04/20 03:10 UTC NOAA

SARM 200310Z 02005KT 9999 TS FEW050CB OVC100 23/20 Q1008


Station Type Date Time Source
SARM Decoded METAR 2019/04/20 03:10 UTC NOAA

Monte Caseros Aerodrome, Argentina (SARM) 30-16S 057-39W 54M
Apr 19, 2019 - 11:10 PM EDT / 2019.04.20 0310 UTC
Wind: from the NNE (020 degrees) at 6 MPH (5 KT):0
Visibility: greater than 7 mile(s):0
Sky conditions: overcast
Weather: thunder; Cumulonimbus clouds observed
Temperature: 73 F (23 C)
Dew Point: 68 F (20 C)
Relative Humidity: 83%
Pressure (altimeter): 29.77 in. Hg (1008 hPa)
ob: SARM 200310Z 02005KT 9999 TS FEW050CB OVC100 23/20 Q1008
cycle: 3

Station Type Date Time Source
SARM TAF UTC NOAA

Error!

Example: see airport list